Trevorton, Pennsylvania
Current Conditions -  °F | °C
As of 3:53 PM on Saturday 20 Dec 2014 (Local Time) from KSEG Reporting Station
Overcast Overcast  
Wind Chill: 33°   Ceiling: 3000
Heat Index: 33°   Visibility: 10mi
Dew Point: 21°   Wind: 0mph
Humidity: 61%   Direction: NA
Pressure: 30.26"   Gusts: NA
Location:  40.78°N, 76.67°W
Report Text: KSEG 202053Z AUTO 00000KT 10SM OVC030 01/M06 A3026 RMK AO2 SLP250 T00061061 53001
Loading
Personal Weather Stations






























Interactive Weather Map New forecast layout! Learn more

10-Day Weather Forecast

Advertisements
Track Severe Weather on mobile